Time;durP1;ratioP1;P1;durP2;ratioP2;P2;SDS_P1;SDS_P2;PMS_P1;PMS_P2;Temp;Humidity;BMP_temperature;BMP_pressure;BME280_temperature;BME280_humidity;BME280_pressure;Samples;Min_cycle;Max_cycle;Signal;HPM_P1;HPM_P2
2021/12/13 00:00:14;;;;;;;60.40;32.30;;;76.80;2227.20;;;;;;5066182;28;20024;-74
2021/12/13 00:03:03;;;;;;;55.03;33.70;;;76.80;2227.20;;;;;;4992650;28;20026;-74
2021/12/13 00:05:35;;;;;;;54.67;30.73;;;52.10;2227.20;;;;;;5010062;28;20064;-73
2021/12/13 00:08:06;;;;;;;55.65;32.75;;;52.10;2227.20;;;;;;5011896;28;20249;-73
2021/12/13 00:10:48;;;;;;;59.17;31.10;;;76.80;2227.20;;;;;;5009817;28;20366;-74
2021/12/13 00:13:28;;;;;;;56.60;31.98;;;76.80;2227.20;;;;;;5010153;28;20635;-74
2021/12/13 00:15:58;;;;;;;58.33;31.20;;;76.80;2227.20;;;;;;5008356;28;20029;-74
2021/12/13 00:18:33;;;;;;;50.25;31.20;;;76.80;2227.20;;;;;;5009411;28;20546;-73
2021/12/13 00:21:07;;;;;;;56.85;30.33;;;76.80;2227.20;;;;;;4985807;28;20373;-74
2021/12/13 00:24:02;;;;;;;57.45;32.30;;;76.80;2227.20;;;;;;5008467;28;20053;-73
2021/12/13 00:26:40;;;;;;;53.20;30.98;;;76.80;2227.20;;;;;;4987771;28;20786;-73
2021/12/13 00:29:26;;;;;;;59.47;32.35;;;76.80;2227.20;;;;;;5010845;28;20036;-73
2021/12/13 00:32:06;;;;;;;46.08;22.98;;;76.80;2227.20;;;;;;5007714;28;20492;-73
2021/12/13 00:34:41;;;;;;;60.15;30.90;;;76.90;2227.20;;;;;;5008919;28;20037;-73
2021/12/13 00:37:10;;;;;;;55.97;29.67;;;76.80;2227.20;;;;;;5009146;28;20504;-73
2021/12/13 00:39:55;;;;;;;55.42;32.30;;;76.80;2227.20;;;;;;5039714;28;20047;-73
2021/12/13 00:42:25;;;;;;;58.33;30.70;;;76.90;2227.20;;;;;;5060881;28;20521;-73
2021/12/13 00:44:58;;;;;;;58.15;32.58;;;76.80;2227.20;;;;;;5062298;28;20086;-73
2021/12/13 00:47:28;;;;;;;57.50;31.88;;;76.80;2227.20;;;;;;5049683;28;20090;-72
2021/12/13 00:50:14;;;;;;;55.75;29.90;;;76.80;2227.20;;;;;;5049470;28;20039;-73
2021/12/13 00:52:43;;;;;;;53.42;29.40;;;76.90;2227.20;;;;;;5052334;28;20025;-73
2021/12/13 00:55:17;;;;;;;48.67;28.10;;;76.90;2227.20;;;;;;5052113;28;20024;-73
2021/12/13 00:57:46;;;;;;;57.40;31.50;;;76.80;2227.20;;;;;;5052198;28;20431;-73
2021/12/13 01:00:25;;;;;;;52.53;29.55;;;76.80;2227.20;;;;;;5052357;28;20031;-73
2021/12/13 01:03:02;;;;;;;52.47;28.58;;;76.80;2227.20;;;;;;5044461;28;20052;-73
2021/12/13 01:05:40;;;;;;;47.85;28.52;;;76.80;2227.20;;;;;;5062161;28;20025;-73
2021/12/13 01:08:51;;;;;;;53.33;27.92;;;76.80;2227.20;;;;;;5065701;28;20025;-73
2021/12/13 01:11:32;;;;;;;58.63;31.10;;;76.80;2227.20;;;;;;5051726;28;20503;-74
2021/12/13 01:14:18;;;;;;;46.33;28.52;;;76.80;2227.20;;;;;;5062696;28;20025;-74
2021/12/13 01:16:58;;;;;;;47.40;27.88;;;76.80;2227.20;;;;;;5061359;28;20018;-74
2021/12/13 01:19:58;;;;;;;54.42;30.30;;;76.80;2227.20;;;;;;5042816;28;20061;-74
2021/12/13 01:25:37;;;;;;;48.70;28.38;;;76.80;2227.20;;;;;;5062913;28;20035;-73
2021/12/13 01:28:31;;;;;;;53.38;29.33;;;76.80;2227.20;;;;;;5049819;28;20271;-74
2021/12/13 01:31:04;;;;;;;54.30;29.23;;;76.80;2227.20;;;;;;5064629;28;20442;-74
2021/12/13 01:33:31;;;;;;;53.05;27.80;;;76.80;2227.20;;;;;;5064655;28;20025;-74
2021/12/13 01:36:02;;;;;;;51.90;28.52;;;76.80;2227.20;;;;;;5051038;28;20070;-73
2021/12/13 01:38:35;;;;;;;56.95;28.88;;;76.80;2227.20;;;;;;5065772;28;20036;-74
2021/12/13 01:41:10;;;;;;;55.50;28.88;;;76.80;2227.20;;;;;;5055505;28;20817;-74
2021/12/13 01:43:40;;;;;;;54.30;28.95;;;76.80;2227.20;;;;;;5051344;28;20032;-74
2021/12/13 01:46:07;;;;;;;50.75;27.73;;;52.10;2227.20;;;;;;5055528;28;20029;-73
2021/12/13 01:48:38;;;;;;;56.85;30.13;;;76.80;2227.20;;;;;;5056900;28;20032;-74
2021/12/13 01:51:10;;;;;;;56.20;30.75;;;76.80;2227.20;;;;;;5056481;28;20025;-74
2021/12/13 01:53:41;;;;;;;53.22;27.08;;;76.80;2227.20;;;;;;5070267;28;20031;-74
2021/12/13 01:56:36;;;;;;;55.38;29.80;;;76.80;2227.20;;;;;;5065712;28;20421;-73
2021/12/13 01:59:27;;;;;;;50.88;28.08;;;76.80;2227.20;;;;;;5065800;28;20036;-73
2021/12/13 02:02:00;;;;;;;48.08;28.15;;;76.80;2227.20;;;;;;5054900;28;20474;-73
2021/12/13 02:04:27;;;;;;;52.05;29.85;;;76.80;2227.20;;;;;;5063299;28;20086;-73
2021/12/13 02:07:01;;;;;;;60.58;31.08;;;76.80;2227.20;;;;;;5066634;28;20029;-74
2021/12/13 02:09:34;;;;;;;49.90;28.30;;;76.80;2227.20;;;;;;5053733;28;20025;-73
2021/12/13 02:12:04;;;;;;;50.45;26.25;;;76.80;2227.20;;;;;;5048236;28;20499;-74
2021/12/13 02:14:32;;;;;;;52.03;27.20;;;76.80;2227.20;;;;;;5045891;28;20043;-73
2021/12/13 02:17:12;;;;;;;53.33;29.77;;;76.80;2227.20;;;;;;5056263;28;20024;-73
2021/12/13 02:19:45;;;;;;;51.42;28.75;;;76.80;2227.20;;;;;;5065299;28;20150;-73
2021/12/13 02:22:41;;;;;;;49.17;27.92;;;76.80;2227.20;;;;;;5065770;28;20584;-73
2021/12/13 02:25:09;;;;;;;56.83;31.35;;;76.80;2227.20;;;;;;5066097;28;20754;-73
2021/12/13 02:27:38;;;;;;;48.58;27.13;;;76.80;2227.20;;;;;;5036365;28;20047;-73
2021/12/13 02:30:17;;;;;;;50.15;27.65;;;76.80;2227.20;;;;;;5053456;28;20063;-73
2021/12/13 02:32:45;;;;;;;55.13;28.58;;;76.80;2227.20;;;;;;5052900;28;20029;-73
2021/12/13 02:35:12;;;;;;;54.20;30.08;;;76.80;2227.20;;;;;;5074275;28;20033;-73
2021/12/13 02:37:40;;;;;;;48.25;26.15;;;76.80;2227.20;;;;;;5074165;28;20049;-73
2021/12/13 02:40:08;;;;;;;50.75;28.90;;;76.80;2227.20;;;;;;5073935;28;20040;-73
2021/12/13 02:42:34;;;;;;;52.67;28.85;;;76.80;2227.20;;;;;;5056440;28;20024;-73
2021/12/13 02:45:25;;;;;;;58.70;30.30;;;76.80;2227.20;;;;;;5073986;28;20107;-73
2021/12/13 02:47:57;;;;;;;49.40;28.75;;;76.80;2227.20;;;;;;5055883;28;20032;-73
2021/12/13 02:50:33;;;;;;;52.78;30.27;;;76.80;2227.20;;;;;;5074082;28;20505;-73
2021/12/13 02:52:59;;;;;;;;;;;76.80;2227.20;;;;;;5074092;28;20025;-73
2021/12/13 02:55:29;;;;;;;52.50;29.77;;;76.80;2227.20;;;;;;5072341;28;20270;-73
2021/12/13 02:57:56;;;;;;;59.95;31.23;;;76.80;2227.20;;;;;;5055768;28;20036;-74
2021/12/13 03:00:31;;;;;;;64.53;35.50;;;76.80;2227.20;;;;;;5073262;28;20399;-73
2021/12/13 03:03:01;;;;;;;61.25;30.65;;;76.80;2227.20;;;;;;5073878;28;20051;-74
2021/12/13 03:05:35;;;;;;;61.80;32.97;;;76.80;2227.20;;;;;;5055549;28;20490;-73
2021/12/13 03:08:18;;;;;;;65.05;33.50;;;76.90;2227.20;;;;;;5055707;28;20058;-74
2021/12/13 03:10:48;;;;;;;61.85;32.33;;;76.80;2227.20;;;;;;5051387;28;20086;-74
2021/12/13 03:13:17;;;;;;;50.30;28.27;;;76.80;2227.20;;;;;;5055298;28;20391;-73
2021/12/13 03:16:06;;;;;;;65.63;31.60;;;76.80;2227.20;;;;;;5073711;28;20021;-74
2021/12/13 03:18:51;;;;;;;58.05;31.27;;;76.80;2227.20;;;;;;5041955;28;20067;-74
2021/12/13 03:21:41;;;;;;;59.97;31.83;;;76.90;2227.20;;;;;;5055358;28;20422;-74
2021/12/13 03:24:10;;;;;;;54.50;31.48;;;76.80;2227.20;;;;;;5055263;28;20035;-74
2021/12/13 03:27:17;;;;;;;58.55;31.50;;;76.80;2227.20;;;;;;5073433;28;20560;-74
2021/12/13 03:29:55;;;;;;;59.72;29.98;;;76.80;2227.20;;;;;;4995320;28;20397;-74
2021/12/13 03:32:22;;;;;;;65.63;32.08;;;76.80;2227.20;;;;;;5004275;28;20034;-74
2021/12/13 03:35:12;;;;;;;67.13;33.08;;;76.80;2227.20;;;;;;5011468;28;20041;-74
2021/12/13 03:37:39;;;;;;;63.75;31.98;;;76.80;2227.20;;;;;;5010886;28;20034;-74
2021/12/13 03:40:19;;;;;;;58.72;31.08;;;76.80;2227.20;;;;;;5011016;28;20034;-73
2021/12/13 03:42:50;;;;;;;56.13;30.05;;;76.80;2227.20;;;;;;5011523;28;20026;-74
2021/12/13 03:45:40;;;;;;;57.47;31.33;;;52.10;2227.20;;;;;;5011378;28;20049;-73
2021/12/13 03:48:09;;;;;;;61.83;31.05;;;52.10;2227.20;;;;;;5010495;28;20057;-74
2021/12/13 03:50:45;;;;;;;56.33;32.80;;;52.10;2227.20;;;;;;5011110;28;20033;-73
2021/12/13 03:53:20;;;;;;;61.08;31.95;;;52.10;2227.20;;;;;;5010628;28;20101;-74
2021/12/13 03:55:49;;;;;;;63.08;32.80;;;52.10;2227.20;;;;;;4994278;28;20068;-73
2021/12/13 03:58:18;;;;;;;60.65;32.17;;;52.10;2227.20;;;;;;5011301;28;20045;-73
2021/12/13 04:00:58;;;;;;;55.20;30.05;;;52.10;2227.20;;;;;;5010887;28;20034;-73
2021/12/13 04:03:25;;;;;;;51.65;28.52;;;52.10;2227.20;;;;;;4997516;28;20142;-74
2021/12/13 04:05:53;;;;;;;60.67;29.20;;;52.10;2227.20;;;;;;5020330;28;20067;-73
2021/12/13 04:08:20;;;;;;;55.70;30.00;;;52.10;2227.20;;;;;;5072248;28;20372;-74
2021/12/13 04:10:59;;;;;;;48.90;28.20;;;52.10;2227.20;;;;;;5054836;28;20032;-73
2021/12/13 04:13:29;;;;;;;53.22;28.83;;;76.80;2227.20;;;;;;5072160;28;20029;-74
2021/12/13 04:16:15;;;;;;;50.08;28.25;;;52.10;2227.20;;;;;;5054263;28;20017;-73
2021/12/13 04:21:21;;;;;;;48.05;28.80;;;76.80;2227.20;;;;;;5072256;28;20031;-74
2021/12/13 04:23:52;;;;;;;52.35;26.95;;;76.80;2227.20;;;;;;5057839;28;20028;-74
2021/12/13 04:26:19;;;;;;;41.03;23.42;;;76.80;2227.20;;;;;;5072671;28;20391;-74
2021/12/13 04:28:49;;;;;;;40.28;25.00;;;76.80;2227.20;;;;;;5087954;28;20021;-74
2021/12/13 04:31:18;;;;;;;50.35;25.77;;;76.80;2227.20;;;;;;5069330;28;20101;-73
2021/12/13 04:33:48;;;;;;;43.22;24.65;;;76.80;2227.20;;;;;;5072006;28;20021;-73
2021/12/13 04:36:16;;;;;;;42.65;26.55;;;76.80;2227.20;;;;;;5054456;28;20027;-73
2021/12/13 04:38:56;;;;;;;43.88;25.30;;;76.80;2227.20;;;;;;5053823;28;20052;-73
2021/12/13 04:41:44;;;;;;;40.28;23.85;;;76.80;2227.20;;;;;;5072010;28;20056;-73
2021/12/13 04:44:19;;;;;;;48.38;26.73;;;76.80;2227.20;;;;;;5054345;28;20024;-74
2021/12/13 04:46:50;;;;;;;43.85;23.35;;;76.80;2227.20;;;;;;5072332;28;20020;-73
2021/12/13 04:49:19;;;;;;;37.88;23.60;;;76.80;2227.20;;;;;;5053950;28;20119;-74
2021/12/13 04:52:11;;;;;;;45.90;23.38;;;76.80;2227.20;;;;;;5072120;28;20505;-73
2021/12/13 04:54:42;;;;;;;43.03;23.95;;;76.80;2227.20;;;;;;5071916;28;20029;-74
2021/12/13 04:57:08;;;;;;;46.33;25.27;;;76.80;2227.20;;;;;;5071800;28;20040;-73
2021/12/13 04:59:35;;;;;;;42.28;22.00;;;76.80;2227.20;;;;;;5053513;28;20028;-72
2021/12/13 05:02:05;;;;;;;40.17;24.17;;;76.90;2227.20;;;;;;5068622;28;20017;-73
2021/12/13 05:04:31;;;;;;;40.20;22.42;;;76.80;2227.20;;;;;;5068169;28;20487;-73
2021/12/13 05:07:01;;;;;;;45.88;24.33;;;76.80;2227.20;;;;;;5065567;28;20025;-73
2021/12/13 05:09:29;;;;;;;50.78;24.65;;;76.80;2227.20;;;;;;5057726;28;20028;-73
2021/12/13 05:12:05;;;;;;;40.92;23.58;;;76.80;2227.20;;;;;;5058139;28;20029;-72
2021/12/13 05:14:33;;;;;;;47.78;24.13;;;76.90;2227.20;;;;;;5057647;28;20271;-73
2021/12/13 05:17:05;;;;;;;41.97;25.05;;;76.80;2227.20;;;;;;5074418;28;20123;-73
2021/12/13 05:19:35;;;;;;;52.85;26.15;;;76.90;2227.20;;;;;;5075463;28;20360;-73
2021/12/13 05:22:05;;;;;;;46.88;27.30;;;76.90;2227.20;;;;;;5075527;28;20500;-72
2021/12/13 05:24:40;;;;;;;44.30;23.58;;;76.90;2227.20;;;;;;5075658;28;20071;-73
2021/12/13 05:27:09;;;;;;;45.85;26.23;;;76.90;2227.20;;;;;;5075294;28;20108;-73
2021/12/13 05:29:40;;;;;;;46.58;26.50;;;76.90;2227.20;;;;;;5038175;28;20029;-72
2021/12/13 05:32:17;;;;;;;45.42;26.40;;;76.90;2227.20;;;;;;5057063;28;20037;-73
2021/12/13 05:34:54;;;;;;;52.50;26.95;;;76.90;2227.20;;;;;;5036877;28;20060;-72
2021/12/13 05:37:21;;;;;;;49.42;24.38;;;76.90;2227.20;;;;;;5037105;28;20025;-73
2021/12/13 05:39:59;;;;;;;48.83;25.95;;;76.80;2227.20;;;;;;5055120;28;20029;-72
2021/12/13 05:42:38;;;;;;;51.80;29.23;;;76.80;2227.20;;;;;;5075334;28;20059;-73
2021/12/13 05:45:08;;;;;;;62.65;30.17;;;76.80;2227.20;;;;;;5075391;28;20028;-73
2021/12/13 05:47:35;;;;;;;54.70;28.67;;;76.80;2227.20;;;;;;5056917;28;20115;-73
2021/12/13 05:50:01;;;;;;;46.00;27.95;;;76.80;2227.20;;;;;;5038972;28;20114;-73
2021/12/13 05:52:37;;;;;;;48.38;27.38;;;76.80;2227.20;;;;;;5060263;28;20051;-73
2021/12/13 05:55:12;;;;;;;42.45;24.13;;;76.80;2227.20;;;;;;5053402;28;20028;-73
2021/12/13 05:57:44;;;;;;;42.85;24.83;;;52.10;2227.20;;;;;;5055164;28;20033;-73
2021/12/13 06:00:31;;;;;;;45.15;25.85;;;52.10;2227.20;;;;;;5055272;28;20029;-73
2021/12/13 06:03:04;;;;;;;54.00;28.42;;;52.10;2227.20;;;;;;5053326;28;20121;-72
2021/12/13 06:05:47;;;;;;;48.45;26.90;;;52.10;2227.20;;;;;;5065840;28;20021;-72
2021/12/13 06:08:19;;;;;;;42.97;26.50;;;52.10;2227.20;;;;;;5051144;28;20024;-73
2021/12/13 06:11:00;;;;;;;49.30;25.42;;;52.10;2227.20;;;;;;5071315;28;20104;-73
2021/12/13 06:13:46;;;;;;;42.67;23.00;;;52.10;2227.20;;;;;;5068887;28;20031;-73
2021/12/13 06:16:24;;;;;;;43.47;25.20;;;52.10;2227.20;;;;;;5064402;28;20037;-73
2021/12/13 06:19:15;;;;;;;55.05;26.73;;;52.10;2227.20;;;;;;5063279;28;20024;-73
2021/12/13 06:21:40;;;;;;;40.33;24.65;;;52.10;2227.20;;;;;;5062532;28;20082;-73
2021/12/13 06:24:08;;;;;;;37.97;22.10;;;52.10;2227.20;;;;;;5059111;28;20056;-73
2021/12/13 06:26:33;;;;;;;46.53;22.70;;;52.10;2227.20;;;;;;5068818;28;20037;-72
2021/12/13 06:29:02;;;;;;;47.40;25.13;;;52.10;2227.20;;;;;;5048179;28;20506;-73
2021/12/13 06:31:38;;;;;;;44.53;25.90;;;52.10;2227.20;;;;;;5058540;28;20031;-73
2021/12/13 06:34:09;;;;;;;50.65;24.73;;;52.10;2227.20;;;;;;5066270;28;20109;-73
2021/12/13 06:36:47;;;;;;;41.03;25.35;;;52.10;2227.20;;;;;;5064289;28;20016;-73
2021/12/13 06:39:19;;;;;;;44.30;24.05;;;52.10;2227.20;;;;;;5044114;28;20051;-74
2021/12/13 06:41:48;;;;;;;53.03;30.05;;;52.10;2227.20;;;;;;5065789;28;20025;-74
2021/12/13 06:44:25;;;;;;;52.50;29.58;;;52.10;2227.20;;;;;;5046740;28;20063;-73
2021/12/13 06:47:03;;;;;;;47.83;27.17;;;52.10;2227.20;;;;;;5050152;28;20044;-73
2021/12/13 06:49:33;;;;;;;48.85;27.98;;;52.10;2227.20;;;;;;5066132;28;20056;-74
2021/12/13 06:52:05;;;;;;;40.80;23.63;;;52.10;2227.20;;;;;;5065253;28;20471;-73
2021/12/13 06:54:36;;;;;;;38.80;22.30;;;52.10;2227.20;;;;;;5040945;28;20513;-74
2021/12/13 06:57:11;;;;;;;40.78;22.90;;;52.10;2227.20;;;;;;5067233;28;20091;-73
2021/12/13 06:59:53;;;;;;;32.45;19.73;;;52.00;2227.20;;;;;;5061403;28;20036;-73
2021/12/13 07:02:25;;;;;;;32.45;16.30;;;52.00;2227.20;;;;;;5068899;28;20064;-73
2021/12/13 07:05:00;;;;;;;24.23;14.65;;;52.00;2227.20;;;;;;5048262;28;20036;-74
2021/12/13 07:07:39;;;;;;;25.33;16.73;;;52.00;2227.20;;;;;;5055124;28;20028;-74
2021/12/13 07:10:15;;;;;;;35.42;19.52;;;52.00;2227.20;;;;;;5063252;28;20480;-73
2021/12/13 07:13:06;;;;;;;36.88;21.85;;;52.00;2227.20;;;;;;5064979;28;20021;-73
2021/12/13 07:15:34;;;;;;;32.80;19.63;;;52.00;2227.20;;;;;;5065602;28;20387;-73
2021/12/13 07:18:05;;;;;;;36.53;16.65;;;52.00;2227.20;;;;;;5065047;28;20047;-74
2021/12/13 07:20:58;;;;;;;31.90;17.10;;;52.00;2227.20;;;;;;5062248;28;20043;-74
2021/12/13 07:23:24;;;;;;;34.97;16.83;;;52.10;2227.20;;;;;;5050595;28;20051;-74
2021/12/13 07:25:52;;;;;;;29.40;16.98;;;52.10;2227.20;;;;;;5049250;28;20037;-74
2021/12/13 07:28:32;;;;;;;31.95;18.92;;;52.00;2227.20;;;;;;5045193;28;20086;-74
2021/12/13 07:30:59;;;;;;;36.58;19.48;;;52.10;2227.20;;;;;;5064790;28;20028;-74
2021/12/13 07:33:43;;;;;;;34.60;20.98;;;52.10;2227.20;;;;;;5064214;28;20111;-74
2021/12/13 07:36:20;;;;;;;35.88;20.58;;;52.10;2227.20;;;;;;5053860;28;20032;-74
2021/12/13 07:38:56;;;;;;;32.72;19.85;;;52.10;2227.20;;;;;;5069398;28;20045;-73
2021/12/13 07:41:23;;;;;;;;;;;52.10;2227.20;;;;;;5051780;28;20449;-74
2021/12/13 07:43:49;;;;;;;32.38;20.02;;;52.10;2227.20;;;;;;5067055;28;19908;-74
2021/12/13 07:46:18;;;;;;;31.77;18.08;;;52.10;2227.20;;;;;;5071240;28;20040;-74
2021/12/13 07:48:43;;;;;;;35.60;19.38;;;52.10;2227.20;;;;;;5066616;28;20440;-74
2021/12/13 07:51:15;;;;;;;33.10;19.23;;;52.10;2227.20;;;;;;5053096;28;20101;-74
2021/12/13 07:53:47;;;;;;;40.72;22.75;;;52.10;2227.20;;;;;;5051012;28;20199;-74
2021/12/13 07:56:39;;;;;;;35.67;21.52;;;52.00;2227.20;;;;;;5068321;28;20875;-73
2021/12/13 07:59:11;;;;;;;36.35;21.48;;;52.00;2227.20;;;;;;5067999;28;20381;-74
2021/12/13 08:01:42;;;;;;;43.15;23.13;;;52.10;2227.20;;;;;;5034755;28;20052;-74
2021/12/13 08:04:21;;;;;;;43.85;23.20;;;52.10;2227.20;;;;;;5055708;28;20065;-74
2021/12/13 08:06:51;;;;;;;46.40;24.70;;;52.10;2227.20;;;;;;5055034;28;20052;-74
2021/12/13 08:09:21;;;;;;;49.13;25.55;;;76.80;2227.20;;;;;;5072285;28;20028;-74
2021/12/13 08:12:26;;;;;;;44.33;26.98;;;76.80;2227.20;;;;;;5053824;28;20513;-74
2021/12/13 08:15:27;;;;;;;47.38;25.88;;;52.10;2227.20;;;;;;5069462;28;20093;-74
2021/12/13 08:18:00;;;;;;;59.13;31.48;;;52.10;2227.20;;;;;;5010870;28;20046;-75
2021/12/13 08:20:40;;;;;;;61.15;33.83;;;52.10;2227.20;;;;;;5004211;28;20441;-74
2021/12/13 08:23:17;;;;;;;56.60;30.35;;;52.10;2227.20;;;;;;4974519;28;20026;-73
2021/12/13 08:25:49;;;;;;;56.05;32.40;;;76.80;2227.20;;;;;;4974872;28;20034;-74
2021/12/13 08:28:18;;;;;;;53.47;29.77;;;52.10;2227.20;;;;;;5009655;28;20034;-73
2021/12/13 08:30:48;;;;;;;57.97;29.63;;;76.80;2227.20;;;;;;4994137;28;20030;-73
2021/12/13 08:33:34;;;;;;;61.28;31.33;;;76.80;2227.20;;;;;;5010146;28;20033;-74
2021/12/13 08:36:18;;;;;;;58.30;31.80;;;76.80;2227.20;;;;;;4991691;28;20026;-74
2021/12/13 08:39:12;;;;;;;57.05;30.90;;;76.80;2227.20;;;;;;4974459;28;20053;-73
2021/12/13 08:41:50;;;;;;;56.33;32.35;;;76.80;2227.20;;;;;;4990711;28;20050;-73
2021/12/13 08:44:26;;;;;;;54.08;31.30;;;76.80;2227.20;;;;;;4974076;28;20030;-73
2021/12/13 08:46:55;;;;;;;;;;;76.90;2227.20;;;;;;4974677;28;20049;-74
2021/12/13 08:49:26;;;;;;;58.22;31.63;;;76.90;2227.20;;;;;;4974630;28;19906;-74
2021/12/13 08:52:17;;;;;;;60.78;33.17;;;76.80;2227.20;;;;;;4990479;28;20034;-74
2021/12/13 08:55:10;;;;;;;60.38;32.85;;;76.90;2227.20;;;;;;5050302;28;20127;-73
2021/12/13 08:57:55;;;;;;;57.80;34.60;;;76.80;2227.20;;;;;;5051663;28;20099;-73
2021/12/13 09:00:20;;;;;;;74.07;44.05;;;76.90;2227.20;;;;;;5052020;28;20021;-73
2021/12/13 09:03:12;;;;;;;63.65;37.05;;;76.90;2227.20;;;;;;5069014;28;20082;-73
2021/12/13 09:05:40;;;;;;;55.05;31.40;;;76.90;2227.20;;;;;;5068373;28;20085;-73
2021/12/13 09:08:10;;;;;;;54.10;31.95;;;76.90;2227.20;;;;;;5068583;28;20028;-73
2021/12/13 09:10:45;;;;;;;60.53;31.98;;;76.90;2227.20;;;;;;5057557;28;20021;-73
2021/12/13 09:13:13;;;;;;;55.42;30.80;;;76.90;2227.20;;;;;;5061610;28;20108;-73
2021/12/13 09:15:40;;;;;;;52.97;32.22;;;77.00;2227.20;;;;;;5053020;28;20028;-74
2021/12/13 09:18:08;;;;;;;52.70;29.30;;;76.90;2227.20;;;;;;5071694;28;20016;-74
2021/12/13 09:20:44;;;;;;;48.38;29.13;;;76.90;2227.20;;;;;;5053443;28;20033;-73
2021/12/13 09:23:15;;;;;;;50.85;29.50;;;77.00;2227.20;;;;;;5053444;28;20033;-74
2021/12/13 09:26:01;;;;;;;49.92;28.65;;;76.90;2227.20;;;;;;5071887;28;20031;-74
2021/12/13 09:28:32;;;;;;;51.22;28.25;;;76.90;2227.20;;;;;;5053376;28;20024;-73
2021/12/13 09:31:14;;;;;;;46.17;26.95;;;76.90;2227.20;;;;;;5071456;28;20021;-73
2021/12/13 09:33:51;;;;;;;59.50;31.45;;;76.90;2227.20;;;;;;5046899;28;20514;-73
2021/12/13 09:36:24;;;;;;;58.33;30.45;;;76.90;2227.20;;;;;;5038764;28;20042;-73
2021/12/13 09:39:06;;;;;;;53.20;28.58;;;76.90;2227.20;;;;;;5052899;28;20043;-74
2021/12/13 09:41:47;;;;;;;54.63;30.17;;;77.00;2227.20;;;;;;5071749;28;20094;-73
2021/12/13 09:44:23;;;;;;;56.03;30.85;;;76.90;2227.20;;;;;;5071390;28;20103;-73
2021/12/13 09:46:55;;;;;;;;;;;76.90;2227.20;;;;;;5051997;28;20020;-73
2021/12/13 09:49:23;;;;;;;51.17;26.70;;;77.00;2227.20;;;;;;5051677;28;19909;-74
2021/12/13 09:51:55;;;;;;;46.80;26.70;;;77.00;2227.20;;;;;;5057047;28;20033;-74
2021/12/13 09:54:28;;;;;;;48.85;27.58;;;77.00;2227.20;;;;;;5059601;28;20021;-74
2021/12/13 09:56:55;;;;;;;54.80;30.42;;;77.00;2227.20;;;;;;5055296;28;20563;-74
2021/12/13 09:59:35;;;;;;;48.58;28.67;;;77.00;2227.20;;;;;;5036123;28;20040;-74
2021/12/13 10:02:06;;;;;;;51.42;29.88;;;77.00;2227.20;;;;;;5057281;28;20021;-74
2021/12/13 10:04:39;;;;;;;54.03;30.33;;;77.00;2227.20;;;;;;5065554;28;20036;-74
2021/12/13 10:07:30;;;;;;;53.47;29.10;;;77.00;2227.20;;;;;;5036619;28;20045;-74
2021/12/13 10:10:00;;;;;;;49.33;28.15;;;77.00;2227.20;;;;;;5013350;28;20042;-74
2021/12/13 10:12:33;;;;;;;52.22;29.90;;;77.00;2227.20;;;;;;4996178;28;20040;-74
2021/12/13 10:15:05;;;;;;;51.58;30.02;;;77.00;2227.20;;;;;;5012714;28;20038;-74
2021/12/13 10:17:35;;;;;;;54.78;31.48;;;77.10;2227.20;;;;;;5012747;28;20029;-74
2021/12/13 10:20:07;;;;;;;60.92;33.83;;;77.10;2227.20;;;;;;4994937;28;20038;-73
2021/12/13 10:22:33;;;;;;;47.15;27.23;;;77.10;2227.20;;;;;;5012088;28;20018;-73
2021/12/13 10:25:13;;;;;;;50.85;29.45;;;77.10;2227.20;;;;;;5012672;28;20030;-74
2021/12/13 10:27:40;;;;;;;50.90;28.90;;;77.20;2227.20;;;;;;5026789;28;20033;-73
2021/12/13 10:30:11;;;;;;;55.00;31.73;;;77.20;2227.20;;;;;;5012631;28;20034;-74
2021/12/13 10:32:41;;;;;;;55.28;33.58;;;77.20;2227.20;;;;;;5012424;28;20030;-73
2021/12/13 10:35:17;;;;;;;54.42;29.38;;;77.20;2227.20;;;;;;4995268;28;20060;-74
2021/12/13 10:37:47;;;;;;;49.92;30.05;;;77.30;2227.20;;;;;;5012031;28;20121;-74
2021/12/13 10:40:31;;;;;;;49.28;29.75;;;77.30;2227.20;;;;;;5012091;28;20042;-74
2021/12/13 10:43:07;;;;;;;52.72;32.50;;;77.30;2227.20;;;;;;5012663;28;20022;-73
2021/12/13 10:45:41;;;;;;;52.28;30.83;;;77.30;2227.20;;;;;;5012289;28;20036;-74
2021/12/13 10:48:09;;;;;;;46.80;27.52;;;77.30;2227.20;;;;;;5056019;28;20032;-73
2021/12/13 10:50:41;;;;;;;48.55;29.33;;;77.30;2227.20;;;;;;5056024;28;20028;-74
2021/12/13 10:53:09;;;;;;;49.50;27.10;;;77.30;2227.20;;;;;;5055940;28;20449;-74
2021/12/13 10:55:44;;;;;;;43.63;27.17;;;77.40;2227.20;;;;;;5055658;28;20033;-74
2021/12/13 10:58:14;;;;;;;45.72;24.10;;;77.40;2227.20;;;;;;5055439;28;20556;-74
2021/12/13 11:00:45;;;;;;;39.13;21.95;;;77.30;2227.20;;;;;;5055727;28;20056;-74
2021/12/13 11:03:17;;;;;;;41.95;23.73;;;77.30;2227.20;;;;;;5072785;28;20100;-74
2021/12/13 11:05:43;;;;;;;34.83;21.55;;;77.30;2227.20;;;;;;5055319;28;20536;-74
2021/12/13 11:08:11;;;;;;;38.05;23.27;;;77.40;2227.20;;;;;;5073937;28;20035;-73
2021/12/13 11:10:43;;;;;;;48.42;27.63;;;77.30;2227.20;;;;;;5055816;28;20035;-73
2021/12/13 11:13:09;;;;;;;45.45;25.80;;;77.40;2227.20;;;;;;5073489;28;20078;-73
2021/12/13 11:15:40;;;;;;;48.92;29.30;;;77.40;2227.20;;;;;;5073825;28;20028;-73
2021/12/13 11:18:11;;;;;;;51.45;26.50;;;77.40;2227.20;;;;;;5073436;28;20050;-73
2021/12/13 11:20:49;;;;;;;51.83;30.67;;;77.30;2227.20;;;;;;5073780;28;20013;-74
2021/12/13 11:23:18;;;;;;;52.00;30.15;;;77.40;2227.20;;;;;;5054240;28;20033;-73
2021/12/13 11:25:54;;;;;;;55.33;30.48;;;77.40;2227.20;;;;;;5055624;28;20127;-74
2021/12/13 11:28:20;;;;;;;46.97;28.67;;;77.30;2227.20;;;;;;5070681;28;20027;-73
2021/12/13 11:30:48;;;;;;;53.85;30.50;;;77.40;2227.20;;;;;;5073167;28;20027;-75
2021/12/13 11:33:41;;;;;;;69.28;39.03;;;77.40;2227.20;;;;;;5055324;28;20032;-74
2021/12/13 11:36:07;;;;;;;67.72;40.08;;;77.40;2227.20;;;;;;5071789;28;20127;-73
2021/12/13 11:38:51;;;;;;;75.97;43.08;;;77.40;2227.20;;;;;;5072314;28;20432;-74
2021/12/13 11:42:05;;;;;;;67.35;40.42;;;77.40;2227.20;;;;;;5071204;28;20495;-74
2021/12/13 11:45:09;;;;;;;63.53;36.50;;;77.40;2227.20;;;;;;5011225;28;20416;-74
2021/12/13 11:48:03;;;;;;;59.67;36.20;;;77.30;2227.20;;;;;;4994755;28;20555;-74
2021/12/13 11:51:00;;;;;;;63.40;35.00;;;77.30;2227.20;;;;;;5011261;28;20141;-73
2021/12/13 11:54:02;;;;;;;47.70;31.30;;;77.30;2227.20;;;;;;5010846;28;20052;-74
2021/12/13 11:57:05;;;;;;;50.70;27.60;;;77.30;2227.20;;;;;;5010853;28;20396;-74
2021/12/13 12:00:00;;;;;;;48.90;30.65;;;77.30;2227.20;;;;;;5010459;28;20477;-74
2021/12/13 12:02:47;;;;;;;50.92;29.40;;;77.30;2227.20;;;;;;5010214;28;20772;-74
2021/12/13 12:05:24;;;;;;;;;;;77.30;2227.20;;;;;;4993744;28;20173;-73
2021/12/13 12:08:31;;;;;;;57.63;32.08;;;77.30;2227.20;;;;;;5010551;28;19913;-74
2021/12/13 12:11:17;;;;;;;51.58;28.52;;;77.30;2227.20;;;;;;4952035;28;20027;-74
2021/12/13 12:14:03;;;;;;;44.60;28.52;;;77.30;2227.20;;;;;;4947180;28;20043;-73
2021/12/13 12:16:31;;;;;;;43.20;26.25;;;77.30;2227.20;;;;;;4951091;28;20620;-73
2021/12/13 12:18:57;;;;;;;54.28;32.17;;;77.30;2227.20;;;;;;4957517;28;20082;-73
2021/12/13 12:21:35;;;;;;;42.60;27.30;;;77.30;2227.20;;;;;;4986586;28;20034;-73
2021/12/13 12:24:13;;;;;;;51.03;31.08;;;77.30;2227.20;;;;;;5009099;28;20038;-73
2021/12/13 12:26:41;;;;;;;54.53;29.95;;;77.30;2227.20;;;;;;5008628;28;20036;-73
2021/12/13 12:29:17;;;;;;;53.42;32.30;;;77.30;2227.20;;;;;;5009643;28;20045;-73
2021/12/13 12:31:46;;;;;;;58.67;33.05;;;77.30;2227.20;;;;;;5001812;28;20033;-73
2021/12/13 12:34:13;;;;;;;48.60;27.45;;;77.30;2227.20;;;;;;4990778;28;20173;-73
2021/12/13 12:37:05;;;;;;;51.13;30.10;;;77.30;2227.20;;;;;;4993380;28;20022;-73
2021/12/13 12:39:59;;;;;;;51.80;30.92;;;77.30;2227.20;;;;;;5007461;28;20046;-73
2021/12/13 12:42:35;;;;;;;54.10;32.50;;;77.30;2227.20;;;;;;4992358;28;20042;-73
2021/12/13 12:45:19;;;;;;;51.80;29.95;;;77.30;2227.20;;;;;;4999936;28;20028;-73
2021/12/13 12:47:50;;;;;;;55.08;32.38;;;77.30;2227.20;;;;;;5040498;28;20399;-73
2021/12/13 12:50:18;;;;;;;58.67;33.65;;;77.30;2227.20;;;;;;5064922;28;20472;-73
2021/12/13 12:52:53;;;;;;;53.85;32.42;;;77.30;2227.20;;;;;;5062878;28;20021;-73
2021/12/13 12:55:25;;;;;;;60.83;35.55;;;77.30;2227.20;;;;;;5067228;28;20060;-73
2021/12/13 12:57:51;;;;;;;59.97;34.20;;;77.30;2227.20;;;;;;5071209;28;20024;-73